createdAt,value
2023-03-11T00:02:17.799Z,0
2023-03-11T00:07:19.375Z,0
2023-03-11T00:12:20.845Z,0
2023-03-11T00:17:22.468Z,0
2023-03-11T00:22:23.933Z,0
2023-03-11T00:27:25.366Z,0
2023-03-11T00:32:26.915Z,0
2023-03-11T00:37:28.534Z,0
2023-03-11T00:42:29.954Z,0
2023-03-11T00:47:31.421Z,0
2023-03-11T00:52:32.919Z,0
2023-03-11T00:57:34.480Z,0
2023-03-11T01:02:35.928Z,0
2023-03-11T01:07:37.553Z,0.88715
2023-03-11T01:12:39.075Z,0.88715
2023-03-11T01:17:40.722Z,0
2023-03-11T01:22:42.201Z,0
2023-03-11T01:27:43.708Z,0
2023-03-11T01:32:45.274Z,0
2023-03-11T01:37:46.768Z,0
2023-03-11T01:42:48.300Z,0
2023-03-11T01:47:49.840Z,0
2023-03-11T01:52:51.309Z,0
2023-03-11T01:57:52.902Z,0
2023-03-11T02:02:54.700Z,0
2023-03-11T02:07:56.191Z,0
2023-03-11T02:12:57.688Z,0
2023-03-11T02:17:59.140Z,0
2023-03-11T02:23:00.605Z,0
2023-03-11T02:28:02.226Z,0
2023-03-11T02:33:03.896Z,0
2023-03-11T02:38:05.362Z,0
2023-03-11T02:43:06.949Z,0
2023-03-11T02:48:08.464Z,0
2023-03-11T02:53:09.920Z,0
2023-03-11T02:58:11.370Z,0.88715
2023-03-11T03:03:12.986Z,0
2023-03-11T03:08:14.569Z,0
2023-03-11T03:13:16.052Z,0
2023-03-11T03:18:17.516Z,0.88715
2023-03-11T03:23:19.138Z,0
2023-03-11T03:28:20.896Z,0.88715
2023-03-11T03:33:22.376Z,0.88715
2023-03-11T03:38:23.889Z,0.88715
2023-03-11T03:43:25.394Z,0
2023-03-11T03:48:27.020Z,0.47405
2023-03-11T03:53:28.556Z,3.85445
2023-03-11T03:58:30.046Z,4.4078
2023-03-11T04:03:31.746Z,7.4693
2023-03-11T04:08:33.322Z,22.57335
2023-03-11T04:13:34.777Z,33.95225
2023-03-11T04:18:36.361Z,59.14405
2023-03-11T04:23:38.045Z,81.2192
2023-03-11T04:28:39.468Z,102.1325
2023-03-11T04:33:41.231Z,122.86135
2023-03-11T04:38:42.729Z,145.545
2023-03-11T04:43:44.180Z,168.0442
2023-03-11T04:48:45.674Z,175.7531
2023-03-11T04:53:47.177Z,198.19715
2023-03-11T04:58:48.678Z,208.8934
2023-03-11T05:03:50.291Z,220.8808
2023-03-11T05:08:51.791Z,231.46675
2023-03-11T05:13:53.379Z,272.2798
2023-03-11T05:18:54.834Z,321.42925
2023-03-11T05:23:56.350Z,339.6328
2023-03-11T05:28:57.778Z,352.396
2023-03-11T05:33:59.254Z,361.4892
2023-03-11T05:39:00.839Z,375.02635
2023-03-11T05:44:02.493Z,384.285
2023-03-11T05:49:04.014Z,400.6992
2023-03-11T05:54:05.551Z,415.1586
2023-03-11T05:59:06.971Z,427.6632
2023-03-11T06:04:08.785Z,458.81255
2023-03-11T06:09:10.476Z,460.06755
2023-03-11T06:14:11.907Z,470.4329
2023-03-11T06:19:13.441Z,469.1246
2023-03-11T06:24:15.059Z,474.60295
2023-03-11T06:29:16.505Z,478.79015
2023-03-11T06:34:17.986Z,487.01625
2023-03-11T06:39:19.575Z,490.24505
2023-03-11T06:44:20.994Z,501.9567
2023-03-11T06:49:22.528Z,507.6195
2023-03-11T06:54:24.027Z,521.2308
2023-03-11T06:59:25.529Z,529.5862
2023-03-11T07:04:27.106Z,539.10345
2023-03-11T07:09:28.544Z,549.5981
2023-03-11T07:14:30.054Z,557.5846
2023-03-11T07:19:31.768Z,569.4807
2023-03-11T07:24:33.229Z,576.30535
2023-03-11T07:29:34.725Z,581.72855
2023-03-11T07:34:36.203Z,595.395
2023-03-11T07:39:37.635Z,596.35525
2023-03-11T07:44:39.378Z,607.5877
2023-03-11T07:49:40.796Z,621.8265
2023-03-11T07:54:42.380Z,636.2859
2023-03-11T07:59:43.959Z,647.75795
2023-03-11T08:04:45.513Z,651.23855
2023-03-11T08:09:47.077Z,668.4824
2023-03-11T08:14:48.518Z,683.4744
2023-03-11T08:19:50.015Z,699.77015
2023-03-11T08:24:51.570Z,720.51015
2023-03-11T08:29:53.003Z,739.9465
2023-03-11T08:34:54.612Z,757.1904
2023-03-11T08:39:56.151Z,774.5528
2023-03-11T08:44:57.693Z,793.98925
2023-03-11T08:49:59.221Z,808.86285
2023-03-11T08:55:00.707Z,829.12885
2023-03-11T09:00:02.214Z,848.92085
2023-03-11T09:05:03.740Z,868.17945
2023-03-11T09:10:05.171Z,886.72705
2023-03-11T09:15:06.659Z,904.1488
2023-03-11T09:20:08.220Z,922.4001
2023-03-11T09:25:09.836Z,940.17735
2023-03-11T09:30:11.354Z,956.88795
2023-03-11T09:35:12.842Z,973.12455
2023-03-11T09:40:14.356Z,987.87965
2023-03-11T09:45:15.898Z,1007.7309
2023-03-11T09:50:17.340Z,1035.59845
2023-03-11T09:55:18.898Z,1053.22965
2023-03-11T10:00:20.412Z,1072.57605
2023-03-11T10:05:22.048Z,1105.01655
2023-03-11T10:10:23.587Z,1143.137
2023-03-11T10:15:25.110Z,1139.9842
2023-03-11T10:20:26.765Z,1180.5025
2023-03-11T10:25:28.234Z,1190.82985
2023-03-11T10:30:30.416Z,1230.37075
2023-03-11T10:35:31.948Z,1254.568
2023-03-11T10:40:33.597Z,1307.5339
2023-03-11T10:45:35.130Z,1367.91395
2023-03-11T10:50:36.922Z,1388.21875
2023-03-11T10:55:38.438Z,1423.57245
2023-03-11T11:00:39.940Z,1488.30515
2023-03-11T11:05:41.436Z,1504.2573
2023-03-11T11:10:42.942Z,1525.59465
2023-03-11T11:15:44.489Z,1592.02355
2023-03-11T11:20:46.035Z,1622.85915
2023-03-11T11:25:47.669Z,1663.9118
2023-03-11T11:30:49.320Z,1706.8108
2023-03-11T11:35:50.978Z,1646.33945
2023-03-11T11:40:52.514Z,820.6688
2023-03-11T11:45:53.989Z,1640.66505
2023-03-11T11:50:55.499Z,1819.8277
2023-03-11T11:55:56.937Z,609.8322
2023-03-11T12:00:58.425Z,1873.28995
2023-03-11T12:05:59.959Z,572.7596
2023-03-11T12:11:01.535Z,1872.41915
2023-03-11T12:16:03.062Z,2022.2598
2023-03-11T12:21:04.539Z,2106.1526
2023-03-11T12:26:06.086Z,2100.21405
2023-03-11T12:31:07.686Z,2056.67225
2023-03-11T12:36:09.277Z,2076.1651
2023-03-11T12:41:10.843Z,2098.47985
2023-03-11T12:46:12.413Z,2018.47765
2023-03-11T12:51:14.097Z,2061.85215
2023-03-11T12:56:15.622Z,708.8462
2023-03-11T13:01:17.113Z,2012.813
2023-03-11T13:06:18.675Z,2019.98385
2023-03-11T13:11:20.217Z,2095.4471
2023-03-11T13:16:21.834Z,608.4442
2023-03-11T13:21:23.379Z,1137.9164
2023-03-11T13:26:24.848Z,623.1242
2023-03-11T13:31:26.391Z,2038.8798
2023-03-11T13:36:27.879Z,2017.29915
2023-03-11T13:41:29.337Z,2047.764
2023-03-11T13:46:30.971Z,2108.7317
2023-03-11T13:51:32.673Z,2101.5933
2023-03-11T13:56:34.165Z,2082.2279
2023-03-11T14:01:35.620Z,2071.10575
2023-03-11T14:06:37.199Z,2045.1933
2023-03-11T14:11:38.695Z,2064.3534
2023-03-11T14:16:40.259Z,2046.8325
2023-03-11T14:21:41.715Z,2012.5475
2023-03-11T14:26:43.233Z,1996.2436
2023-03-11T14:31:44.794Z,1990.76525
2023-03-11T14:36:46.833Z,1985.23175
2023-03-11T14:41:48.376Z,1948.88165
2023-03-11T14:46:49.956Z,1890.88045
2023-03-11T14:51:51.499Z,1825.77885
2023-03-11T14:56:52.979Z,1754.33365
2023-03-11T15:01:54.788Z,1704.5947
2023-03-11T15:06:56.250Z,1617.30765
2023-03-11T15:11:57.763Z,1491.05205
2023-03-11T15:16:59.362Z,1334.71765
2023-03-11T15:22:00.996Z,1187.6039
2023-03-11T15:27:02.616Z,1026.2342
2023-03-11T15:32:04.117Z,830.30375
2023-03-11T15:37:05.555Z,643.8697
2023-03-11T15:42:07.150Z,468.98
2023-03-11T15:47:08.683Z,324.61215
2023-03-11T15:52:10.183Z,230.70205
2023-03-11T15:57:12.869Z,177.6963
2023-03-11T16:02:14.577Z,137.0297
2023-03-11T16:07:17.097Z,114.27005
2023-03-11T16:12:18.861Z,100.1777
2023-03-11T16:17:20.549Z,64.78785
2023-03-11T16:22:22.040Z,43.6901
2023-03-11T16:27:23.505Z,30.8356
2023-03-11T16:32:25.000Z,16.94855
2023-03-11T16:37:26.480Z,4.2665
2023-03-11T16:42:27.917Z,2.4888
2023-03-11T16:47:29.491Z,1.53075
2023-03-11T16:52:31.236Z,1.16185
2023-03-11T16:57:32.829Z,0.88715
2023-03-11T17:02:34.300Z,0.88715
2023-03-11T17:07:51.492Z,0.88715
2023-03-11T17:12:52.997Z,0.88715
2023-03-11T17:17:54.472Z,0
2023-03-11T17:22:55.903Z,0
2023-03-11T17:27:57.516Z,0
2023-03-11T17:32:59.069Z,0
2023-03-11T17:38:00.643Z,0
2023-03-11T17:43:02.340Z,0
2023-03-11T17:48:03.930Z,0
2023-03-11T17:53:05.363Z,0
2023-03-11T17:58:06.882Z,0
2023-03-11T18:03:08.390Z,0
2023-03-11T18:08:09.888Z,0
2023-03-11T18:13:11.518Z,0
2023-03-11T18:18:13.195Z,0.88715
2023-03-11T18:23:14.673Z,0.88715
2023-03-11T18:28:16.208Z,0
2023-03-11T18:33:17.726Z,0
2023-03-11T18:38:19.410Z,0
2023-03-11T18:43:20.891Z,0
2023-03-11T18:48:22.397Z,0
2023-03-11T18:53:24.055Z,0
2023-03-11T18:58:25.609Z,0
2023-03-11T19:03:27.062Z,0
2023-03-11T19:08:28.560Z,0
2023-03-11T19:13:45.641Z,0
2023-03-11T19:18:47.992Z,0
2023-03-11T19:23:49.446Z,0
2023-03-11T19:28:50.973Z,0
2023-03-11T19:33:52.466Z,0
2023-03-11T19:38:54.026Z,0
2023-03-11T19:43:55.467Z,0
2023-03-11T19:48:57.002Z,0
2023-03-11T19:53:58.504Z,0
2023-03-11T19:59:00.186Z,0
2023-03-11T20:04:01.656Z,0
2023-03-11T20:09:03.260Z,0
2023-03-11T20:14:04.747Z,0
2023-03-11T20:19:06.374Z,0
2023-03-11T20:24:07.879Z,0.88715
2023-03-11T20:29:09.446Z,0
2023-03-11T20:34:11.092Z,0
2023-03-11T20:39:12.670Z,0
2023-03-11T20:44:14.311Z,0
2023-03-11T20:49:15.880Z,0
2023-03-11T20:54:17.365Z,0.88715
2023-03-11T20:59:19.025Z,0
2023-03-11T21:04:20.568Z,0
2023-03-11T21:09:22.194Z,0
2023-03-11T21:14:23.808Z,0
2023-03-11T21:19:25.443Z,0
2023-03-11T21:24:26.988Z,0
2023-03-11T21:29:28.644Z,0
2023-03-11T21:34:30.227Z,0
2023-03-11T21:39:31.749Z,0
2023-03-11T21:44:33.439Z,0
2023-03-11T21:49:34.986Z,0
2023-03-11T21:54:36.615Z,0
2023-03-11T21:59:38.288Z,0
2023-03-11T22:04:39.974Z,0
2023-03-11T22:09:41.614Z,0
2023-03-11T22:14:43.411Z,0
2023-03-11T22:19:44.995Z,0
2023-03-11T22:24:46.512Z,0
2023-03-11T22:29:48.117Z,0
2023-03-11T22:34:49.616Z,0
2023-03-11T22:39:51.151Z,0
2023-03-11T22:44:52.607Z,0.88715
2023-03-11T22:49:54.088Z,0
2023-03-11T22:54:55.617Z,0
2023-03-11T22:59:57.304Z,0
2023-03-11T23:04:58.760Z,0
2023-03-11T23:10:00.291Z,0
2023-03-11T23:15:01.834Z,0
2023-03-11T23:20:03.441Z,0
2023-03-11T23:25:04.938Z,0
2023-03-11T23:30:06.621Z,0
2023-03-11T23:35:08.163Z,0
2023-03-11T23:40:09.658Z,0
2023-03-11T23:45:11.187Z,0
2023-03-11T23:50:12.699Z,0
2023-03-11T23:55:14.350Z,0.88715
